createdAt,value
2023-10-23T00:02:10.123Z,11.77
2023-10-23T00:10:37.674Z,11.78
2023-10-23T00:19:07.500Z,11.78
2023-10-23T00:27:59.042Z,11.79
2023-10-23T00:36:23.336Z,11.78
2023-10-23T00:44:47.240Z,11.75
2023-10-23T00:53:24.175Z,11.73
2023-10-23T01:01:55.908Z,11.75
2023-10-23T01:10:20.575Z,11.76
2023-10-23T01:18:48.410Z,11.73
2023-10-23T01:27:16.120Z,11.71
2023-10-23T01:35:43.157Z,11.71
2023-10-23T01:44:08.635Z,11.69
2023-10-23T01:52:36.358Z,11.66
2023-10-23T02:01:04.599Z,11.63
2023-10-23T02:09:33.595Z,11.60
2023-10-23T02:18:01.920Z,11.57
2023-10-23T02:26:35.455Z,11.56
2023-10-23T02:35:00.221Z,11.50
2023-10-23T02:43:24.585Z,11.45
2023-10-23T02:51:53.387Z,11.37
2023-10-23T03:00:17.513Z,11.24
2023-10-23T03:08:49.947Z,11.13
2023-10-23T03:17:16.980Z,11.03
2023-10-23T03:25:45.526Z,10.94
2023-10-23T03:34:10.678Z,10.84
2023-10-23T03:42:53.388Z,10.72
2023-10-23T03:51:25.097Z,10.65
2023-10-23T03:59:52.466Z,10.62
2023-10-23T04:08:20.123Z,10.59
2023-10-23T04:16:45.374Z,10.59
2023-10-23T04:25:16.440Z,10.63
2023-10-23T04:33:44.635Z,10.59
2023-10-23T04:42:08.743Z,10.54
2023-10-23T04:50:38.787Z,10.51
2023-10-23T04:59:11.010Z,10.51
2023-10-23T05:07:38.633Z,10.54
2023-10-23T05:16:14.468Z,10.54
2023-10-23T05:24:47.138Z,10.53
2023-10-23T05:33:14.260Z,10.55
2023-10-23T05:41:41.382Z,10.61
2023-10-23T05:50:10.555Z,10.63
2023-10-23T05:58:46.298Z,10.69
2023-10-23T06:07:13.824Z,10.74
2023-10-23T06:15:41.311Z,10.80
2023-10-23T06:24:12.441Z,10.91
2023-10-23T06:32:42.153Z,11.00
2023-10-23T06:41:26.624Z,11.10
2023-10-23T06:49:53.950Z,11.16
2023-10-23T06:58:23.900Z,11.24
2023-10-23T07:06:57.214Z,11.40
2023-10-23T07:15:25.538Z,11.57
2023-10-23T07:23:54.189Z,11.67
2023-10-23T07:32:24.200Z,11.76
2023-10-23T07:40:56.207Z,11.87
2023-10-23T07:49:20.502Z,12.05
2023-10-23T07:57:56.466Z,12.21
2023-10-23T08:06:22.238Z,12.29
2023-10-23T08:14:47.465Z,12.35
2023-10-23T08:23:20.626Z,12.38
2023-10-23T08:31:52.751Z,12.43
2023-10-23T08:40:17.049Z,12.59
2023-10-23T08:48:48.923Z,12.75
2023-10-23T08:57:17.108Z,12.80
2023-10-23T09:05:45.597Z,12.73
2023-10-23T09:14:24.849Z,12.62
2023-10-23T09:22:58.273Z,12.65
2023-10-23T09:31:31.761Z,12.72
2023-10-23T09:40:13.484Z,12.77
2023-10-23T09:48:45.452Z,12.86
2023-10-23T09:57:14.872Z,13.02
2023-10-23T10:05:57.798Z,13.14
2023-10-23T10:14:28.923Z,13.12
2023-10-23T10:23:11.605Z,13.05
2023-10-23T10:32:10.997Z,13.06
2023-10-23T10:41:01.531Z,12.99
2023-10-23T10:49:32.971Z,12.83
2023-10-23T10:58:05.069Z,12.71
2023-10-23T11:06:37.048Z,12.73
2023-10-23T11:15:08.385Z,12.78
2023-10-23T11:23:47.958Z,12.82
2023-10-23T11:32:18.672Z,12.93
2023-10-23T11:40:48.425Z,13.01
2023-10-23T11:49:12.968Z,13.24
2023-10-23T11:57:43.573Z,13.40
2023-10-23T12:06:09.646Z,13.44
2023-10-23T12:14:37.436Z,13.45
2023-10-23T12:23:04.403Z,13.41
2023-10-23T12:31:30.904Z,13.36
2023-10-23T12:40:02.172Z,13.31
2023-10-23T12:48:28.409Z,13.30
2023-10-23T12:56:53.697Z,13.28
2023-10-23T13:05:21.248Z,13.23
2023-10-23T13:13:48.161Z,13.22
2023-10-23T13:22:18.081Z,13.25
2023-10-23T13:30:44.848Z,13.29
2023-10-23T13:39:12.321Z,13.26
2023-10-23T13:47:38.450Z,13.26
2023-10-23T13:56:05.364Z,13.25
2023-10-23T14:04:29.356Z,13.23
2023-10-23T14:12:57.982Z,13.25
2023-10-23T14:21:24.867Z,13.29
2023-10-23T14:29:48.825Z,13.25
2023-10-23T14:38:13.251Z,13.19
2023-10-23T14:46:39.415Z,13.17
2023-10-23T14:55:05.509Z,13.19
2023-10-23T15:03:31.125Z,13.18
2023-10-23T15:11:54.658Z,13.10
2023-10-23T15:20:30.969Z,12.84
2023-10-23T15:28:55.788Z,12.52
2023-10-23T15:37:21.237Z,12.25
2023-10-23T15:45:51.541Z,11.92
2023-10-23T15:54:16.184Z,11.61
2023-10-23T16:02:42.899Z,11.41
2023-10-23T16:11:09.318Z,11.27
2023-10-23T16:19:34.272Z,11.23
2023-10-23T16:28:00.145Z,11.17
2023-10-23T16:36:24.032Z,11.09
2023-10-23T16:44:55.880Z,10.99
2023-10-23T16:53:20.738Z,10.91
2023-10-23T17:01:45.992Z,10.89
2023-10-23T17:10:10.741Z,10.92
2023-10-23T17:18:35.931Z,10.95
2023-10-23T17:27:00.401Z,10.99
2023-10-23T17:35:26.825Z,10.97
2023-10-23T17:43:51.819Z,10.93
2023-10-23T17:52:18.816Z,10.92
2023-10-23T18:00:43.001Z,10.93
2023-10-23T18:09:08.018Z,10.87
2023-10-23T18:17:32.162Z,10.81
2023-10-23T18:26:02.394Z,10.85
2023-10-23T18:34:26.637Z,10.81
2023-10-23T18:43:03.716Z,10.74
2023-10-23T18:51:29.387Z,10.61
2023-10-23T18:59:54.662Z,10.47
2023-10-23T19:08:17.968Z,10.38
2023-10-23T19:16:42.186Z,10.31
2023-10-23T19:25:10.860Z,10.26
2023-10-23T19:33:41.245Z,10.22
2023-10-23T19:42:12.553Z,10.20
2023-10-23T19:50:44.564Z,10.14
2023-10-23T19:59:09.298Z,10.09
2023-10-23T20:07:48.371Z,9.97
2023-10-23T20:16:13.776Z,9.89
2023-10-23T20:24:37.752Z,9.82
2023-10-23T20:33:04.374Z,9.79
2023-10-23T20:41:29.339Z,9.74
2023-10-23T20:49:53.292Z,9.68
2023-10-23T20:58:19.846Z,9.63
2023-10-23T21:06:45.133Z,9.60
2023-10-23T21:15:12.556Z,9.53
2023-10-23T21:23:36.771Z,9.46
2023-10-23T21:32:01.917Z,9.45
2023-10-23T21:40:26.313Z,9.43
2023-10-23T21:48:50.156Z,9.41
2023-10-23T21:57:20.418Z,9.34
2023-10-23T22:05:52.594Z,9.33
2023-10-23T22:14:17.858Z,9.34
2023-10-23T22:22:42.970Z,9.25
2023-10-23T22:31:07.137Z,9.22
2023-10-23T22:39:34.169Z,9.20
2023-10-23T22:47:58.479Z,9.19
2023-10-23T22:56:25.995Z,9.13
2023-10-23T23:04:50.932Z,9.05
2023-10-23T23:13:18.937Z,8.96
2023-10-23T23:21:46.809Z,8.85
2023-10-23T23:30:11.312Z,8.77
2023-10-23T23:38:36.027Z,8.54
2023-10-23T23:47:03.002Z,8.14
2023-10-23T23:55:30.989Z,7.90
